Time;durP1;ratioP1;P1;durP2;ratioP2;P2;SDS_P1;SDS_P2;PMS_P1;PMS_P2;Temp;Humidity;BMP_temperature;BMP_pressure;BME280_temperature;BME280_humidity;BME280_pressure;Samples;Min_cycle;Max_cycle;Signal;HPM_P1;HPM_P2
2021/07/06 00:00:57;;;;;;;5.20;2.30;;;16.90;65.30;;;;;;4911869;29;20130;-77
2021/07/06 00:03:23;;;;;;;6.10;2.80;;;16.90;65.40;;;;;;4917263;29;20043;-78
2021/07/06 00:05:49;;;;;;;4.85;2.72;;;16.90;65.40;;;;;;4929959;29;20538;-77
2021/07/06 00:08:16;;;;;;;4.30;2.47;;;16.90;65.50;;;;;;4930297;29;20032;-77
2021/07/06 00:10:42;;;;;;;4.95;2.30;;;16.90;65.50;;;;;;4930219;29;20474;-77
2021/07/06 00:13:08;;;;;;;6.85;2.88;;;16.90;65.60;;;;;;4930466;29;20040;-77
2021/07/06 00:15:34;;;;;;;7.80;2.78;;;16.90;65.60;;;;;;4931158;29;20054;-77
2021/07/06 00:18:01;;;;;;;10.05;3.35;;;16.90;65.70;;;;;;4930529;29;20035;-78
2021/07/06 00:20:28;;;;;;;8.23;2.83;;;16.90;65.70;;;;;;4929148;29;20039;-77
2021/07/06 00:22:56;;;;;;;5.93;2.55;;;16.80;65.60;;;;;;4928798;29;20066;-77
2021/07/06 00:25:22;;;;;;;7.85;2.45;;;16.80;65.60;;;;;;4945346;29;20038;-78
2021/07/06 00:27:48;;;;;;;11.75;3.08;;;16.80;65.70;;;;;;4930674;29;20031;-78
2021/07/06 00:30:15;;;;;;;8.35;2.65;;;16.90;65.80;;;;;;4930269;29;20483;-78
2021/07/06 00:32:41;;;;;;;6.75;2.75;;;16.80;65.70;;;;;;4928299;29;20036;-78
2021/07/06 00:35:08;;;;;;;7.13;3.58;;;16.80;65.80;;;;;;4931012;29;20031;-78
2021/07/06 00:37:34;;;;;;;7.47;3.05;;;16.80;65.80;;;;;;4929197;29;20043;-77
2021/07/06 00:40:02;;;;;;;8.50;3.13;;;16.80;65.80;;;;;;4930553;29;20035;-78
2021/07/06 00:42:28;;;;;;;7.70;3.17;;;16.80;65.90;;;;;;4928584;29;20032;-78
2021/07/06 00:44:54;;;;;;;12.43;3.45;;;16.80;65.90;;;;;;4928691;29;20046;-79
2021/07/06 00:47:32;;;;;;;17.13;3.67;;;16.80;65.90;;;;;;4929605;29;20035;-79
2021/07/06 00:49:58;;;;;;;13.55;4.28;;;16.80;66.10;;;;;;4930276;29;20059;-79
2021/07/06 00:52:24;;;;;;;13.00;3.70;;;16.70;65.80;;;;;;4930505;29;20078;-79
2021/07/06 00:54:50;;;;;;;15.85;4.05;;;16.70;65.80;;;;;;4944486;29;20028;-78
2021/07/06 00:57:17;;;;;;;10.85;3.97;;;16.70;65.90;;;;;;4929210;29;20038;-78
2021/07/06 00:59:43;;;;;;;9.45;3.35;;;16.70;65.90;;;;;;4930245;29;20023;-78
2021/07/06 01:02:09;;;;;;;7.65;3.85;;;16.70;65.90;;;;;;4930097;29;20394;-79
2021/07/06 01:04:35;;;;;;;11.15;3.42;;;16.70;66.00;;;;;;4930302;29;20035;-78
2021/07/06 01:07:01;;;;;;;10.88;3.63;;;16.60;65.80;;;;;;4929060;29;20388;-79
2021/07/06 01:09:27;;;;;;;11.82;4.35;;;16.60;65.90;;;;;;4929695;29;20070;-79
2021/07/06 01:11:53;;;;;;;16.48;4.13;;;16.60;65.90;;;;;;4930155;29;20654;-79
2021/07/06 01:14:19;;;;;;;13.32;4.10;;;16.60;66.00;;;;;;4929569;29;20083;-79
2021/07/06 01:16:46;;;;;;;8.50;4.00;;;16.60;66.00;;;;;;4928573;29;20132;-78
2021/07/06 01:19:16;;;;;;;11.63;2.95;;;16.60;66.10;;;;;;4928193;29;20043;-79
2021/07/06 01:21:42;;;;;;;10.20;3.67;;;16.60;66.10;;;;;;4929476;29;20027;-77
2021/07/06 01:24:08;;;;;;;9.30;3.60;;;16.60;66.10;;;;;;4944267;29;20487;-77
2021/07/06 01:26:34;;;;;;;12.43;3.85;;;16.60;66.20;;;;;;4928860;29;20042;-78
2021/07/06 01:29:00;;;;;;;10.82;4.07;;;16.60;66.20;;;;;;4929390;29;20044;-78
2021/07/06 01:31:26;;;;;;;11.13;3.90;;;16.60;66.20;;;;;;4914412;29;20068;-77
2021/07/06 01:33:55;;;;;;;12.73;4.82;;;16.50;66.10;;;;;;4911986;29;20032;-78
2021/07/06 01:36:22;;;;;;;10.95;3.80;;;16.50;66.20;;;;;;4911929;29;20376;-77
2021/07/06 01:38:48;;;;;;;13.13;4.22;;;16.60;66.30;;;;;;4917870;29;20084;-78
2021/07/06 01:41:14;;;;;;;9.13;3.67;;;16.50;66.20;;;;;;4929599;29;20032;-78
2021/07/06 01:43:40;;;;;;;15.57;4.72;;;16.50;66.20;;;;;;4945404;28;20248;-79
2021/07/06 01:46:06;;;;;;;13.38;3.83;;;16.50;66.30;;;;;;4922531;29;20365;-77
2021/07/06 01:48:32;;;;;;;13.70;4.18;;;16.50;66.30;;;;;;4913338;29;20047;-78
2021/07/06 01:50:58;;;;;;;9.85;3.60;;;16.50;66.30;;;;;;4913257;29;20123;-78
2021/07/06 01:53:24;;;;;;;12.95;4.55;;;16.50;66.30;;;;;;4914887;29;20123;-78
2021/07/06 01:55:52;;;;;;;13.48;3.95;;;16.50;66.90;;;;;;4914549;29;20020;-79
2021/07/06 01:58:21;;;;;;;11.40;4.82;;;16.50;66.40;;;;;;4914488;29;20558;-79
2021/07/06 02:00:58;;;;;;;11.00;3.78;;;16.50;66.50;;;;;;4913978;29;20055;-80
2021/07/06 02:03:24;;;;;;;18.42;4.00;;;16.50;66.60;;;;;;4913354;29;20082;-80
2021/07/06 02:05:59;;;;;;;15.52;3.72;;;16.50;66.50;;;;;;4913730;29;20028;-78
2021/07/06 02:08:30;;;;;;;11.32;4.10;;;16.50;66.50;;;;;;4914379;29;20058;-79
2021/07/06 02:10:59;;;;;;;8.30;3.83;;;16.50;66.50;;;;;;4914331;29;20074;-77
2021/07/06 02:13:25;;;;;;;14.30;5.05;;;16.50;66.60;;;;;;4913302;29;20080;-77
2021/07/06 02:15:54;;;;;;;11.68;4.55;;;16.40;66.40;;;;;;4914185;29;20032;-78
2021/07/06 02:18:20;;;;;;;14.18;4.80;;;16.40;66.50;;;;;;4913872;29;20036;-78
2021/07/06 02:20:55;;;;;;;17.73;4.82;;;16.40;66.50;;;;;;4914391;29;20028;-78
2021/07/06 02:23:22;;;;;;;12.50;3.70;;;16.40;66.60;;;;;;4913511;29;20123;-78
2021/07/06 02:25:48;;;;;;;10.93;4.00;;;16.40;66.60;;;;;;4913207;29;20050;-77
2021/07/06 02:28:15;;;;;;;10.90;3.75;;;16.40;66.60;;;;;;4913635;29;20032;-78
2021/07/06 02:30:41;;;;;;;12.27;4.00;;;16.40;66.60;;;;;;4914371;29;20072;-77
2021/07/06 02:33:07;;;;;;;9.57;3.05;;;16.40;67.20;;;;;;4914445;29;20701;-77
2021/07/06 02:35:32;;;;;;;9.38;3.72;;;16.40;66.70;;;;;;4913235;29;20039;-77
2021/07/06 02:38:00;;;;;;;11.27;4.10;;;16.40;66.70;;;;;;4913381;29;20028;-78
2021/07/06 02:40:28;;;;;;;11.18;4.40;;;16.40;66.80;;;;;;4913767;29;20060;-78
2021/07/06 02:42:54;;;;;;;12.23;4.13;;;16.40;66.80;;;;;;4914072;29;20032;-80
2021/07/06 02:45:20;;;;;;;12.50;4.55;;;16.40;66.80;;;;;;4914974;29;20119;-79
2021/07/06 02:47:47;;;;;;;10.38;3.70;;;16.40;66.80;;;;;;4913190;29;20066;-79
2021/07/06 02:50:14;;;;;;;8.80;4.05;;;16.30;66.60;;;;;;4914245;29;20028;-78
2021/07/06 02:52:41;;;;;;;8.50;3.50;;;16.40;66.80;;;;;;4913148;29;20048;-79
2021/07/06 02:55:07;;;;;;;7.82;3.25;;;16.30;66.70;;;;;;4915382;29;20032;-78
2021/07/06 02:57:39;;;;;;;7.88;3.58;;;16.30;66.70;;;;;;4917193;29;20035;-78
2021/07/06 03:00:05;;;;;;;12.35;3.60;;;16.30;66.70;;;;;;4918133;29;20421;-80
2021/07/06 03:02:31;;;;;;;8.43;3.30;;;16.30;66.70;;;;;;4917364;29;20131;-79
2021/07/06 03:04:57;;;;;;;8.93;3.67;;;16.30;66.70;;;;;;4917703;29;20075;-79
2021/07/06 03:07:23;;;;;;;11.50;4.18;;;16.30;66.80;;;;;;4917878;29;20048;-80
2021/07/06 03:09:49;;;;;;;11.65;4.18;;;16.20;66.60;;;;;;4916636;29;20500;-79
2021/07/06 03:12:15;;;;;;;13.02;4.57;;;16.20;66.60;;;;;;4917213;29;20088;-79
2021/07/06 03:14:41;;;;;;;10.40;4.00;;;16.20;66.70;;;;;;4916808;29;20071;-80
2021/07/06 03:17:07;;;;;;;13.35;3.80;;;16.20;66.70;;;;;;4917412;29;20064;-80
2021/07/06 03:19:33;;;;;;;14.63;4.05;;;16.10;66.50;;;;;;4917667;29;20036;-80
2021/07/06 03:21:59;;;;;;;8.95;3.95;;;16.10;66.60;;;;;;4917479;29;20028;-80
2021/07/06 03:24:25;;;;;;;10.10;4.18;;;16.10;66.60;;;;;;4932342;29;20078;-79
2021/07/06 03:26:50;;;;;;;9.07;3.33;;;16.10;66.60;;;;;;4917029;29;20032;-80
2021/07/06 03:29:16;;;;;;;9.93;3.47;;;16.00;66.50;;;;;;4916322;29;20063;-79
2021/07/06 03:31:42;;;;;;;8.55;3.47;;;16.00;66.50;;;;;;4917157;29;20440;-80
2021/07/06 03:34:08;;;;;;;7.35;3.63;;;16.00;66.60;;;;;;4917351;29;20091;-80
2021/07/06 03:36:34;;;;;;;8.65;2.88;;;15.90;66.50;;;;;;4917349;29;20503;-80
2021/07/06 03:39:00;;;;;;;11.35;3.25;;;15.90;66.50;;;;;;4916790;29;20615;-79
2021/07/06 03:41:26;;;;;;;13.40;4.05;;;15.90;66.60;;;;;;4917116;29;20028;-79
2021/07/06 03:43:52;;;;;;;5.70;3.05;;;15.80;66.40;;;;;;4915408;29;20119;-78
2021/07/06 03:46:18;;;;;;;12.43;4.50;;;15.80;66.50;;;;;;4915819;29;20115;-77
2021/07/06 03:48:44;;;;;;;13.15;4.03;;;15.80;66.50;;;;;;4916541;29;20119;-78
2021/07/06 03:51:10;;;;;;;7.95;4.22;;;15.70;66.40;;;;;;4915350;29;20468;-78
2021/07/06 03:53:35;;;;;;;12.60;3.53;;;15.70;66.50;;;;;;4916949;29;20047;-78
2021/07/06 03:56:01;;;;;;;8.05;3.72;;;15.60;66.40;;;;;;4916217;29;20043;-79
2021/07/06 03:58:27;;;;;;;10.52;3.15;;;15.60;66.40;;;;;;4916160;29;20514;-79
2021/07/06 04:00:56;;;;;;;8.00;3.35;;;15.60;66.50;;;;;;4916505;29;20032;-79
2021/07/06 04:03:25;;;;;;;9.20;3.35;;;15.50;66.40;;;;;;4916571;29;20480;-78
2021/07/06 04:05:52;;;;;;;9.57;3.05;;;15.50;66.40;;;;;;4916627;29;20079;-77
2021/07/06 04:08:18;;;;;;;15.10;3.92;;;15.50;66.50;;;;;;4914344;29;20032;-78
2021/07/06 04:10:44;;;;;;;6.63;2.90;;;15.40;66.30;;;;;;4916222;29;20428;-77
2021/07/06 04:13:10;;;;;;;8.73;3.33;;;15.40;66.30;;;;;;4899305;29;20044;-78
2021/07/06 04:15:38;;;;;;;8.20;3.45;;;15.40;66.40;;;;;;4915916;29;20054;-78
2021/07/06 04:18:04;;;;;;;7.65;2.72;;;15.30;66.30;;;;;;4916659;29;20074;-77
2021/07/06 04:20:32;;;;;;;9.85;3.50;;;15.30;66.30;;;;;;4916011;29;20025;-77
2021/07/06 04:22:58;;;;;;;8.32;3.03;;;15.30;66.40;;;;;;4915352;29;20028;-78
2021/07/06 04:25:25;;;;;;;6.80;3.40;;;15.30;66.40;;;;;;4916004;29;20040;-77
2021/07/06 04:27:54;;;;;;;7.03;3.25;;;15.30;66.50;;;;;;4915493;29;20028;-78
2021/07/06 04:30:20;;;;;;;9.82;3.30;;;15.30;66.60;;;;;;4916293;29;20519;-77
2021/07/06 04:32:47;;;;;;;8.00;3.25;;;15.30;66.60;;;;;;4915729;29;20047;-77
2021/07/06 04:35:13;;;;;;;6.85;3.42;;;15.20;66.40;;;;;;4914958;29;20032;-78
2021/07/06 04:37:41;;;;;;;5.72;2.72;;;15.20;66.40;;;;;;4915990;29;20040;-78
2021/07/06 04:40:07;;;;;;;8.32;2.92;;;15.20;66.50;;;;;;4914836;29;20032;-78
2021/07/06 04:42:33;;;;;;;7.40;2.60;;;15.20;66.60;;;;;;4915271;29;20488;-78
2021/07/06 04:44:59;;;;;;;5.60;2.58;;;15.20;66.60;;;;;;4914808;29;20051;-78
2021/07/06 04:47:25;;;;;;;7.55;2.80;;;15.20;66.60;;;;;;4911808;29;20098;-77
2021/07/06 04:49:51;;;;;;;6.82;3.10;;;15.20;66.60;;;;;;4911189;29;20119;-78
2021/07/06 04:52:17;;;;;;;8.25;3.08;;;15.10;66.50;;;;;;4911618;29;20139;-78
2021/07/06 04:54:43;;;;;;;10.07;3.10;;;15.20;66.70;;;;;;4912270;29;20472;-78
2021/07/06 04:57:09;;;;;;;5.50;2.67;;;15.20;66.70;;;;;;4911828;29;20036;-78
2021/07/06 04:59:35;;;;;;;5.70;2.35;;;15.20;66.70;;;;;;4930962;29;20553;-78
2021/07/06 05:02:03;;;;;;;5.40;2.75;;;15.20;66.80;;;;;;4918327;29;20039;-79
2021/07/06 05:04:29;;;;;;;6.22;2.25;;;15.20;66.80;;;;;;4914215;29;20036;-79
2021/07/06 05:06:55;;;;;;;6.07;2.65;;;15.20;66.80;;;;;;4917302;29;20286;-78
2021/07/06 05:09:21;;;;;;;7.03;3.38;;;15.20;66.80;;;;;;4929692;29;20034;-78
2021/07/06 05:11:47;;;;;;;8.32;2.92;;;15.20;66.80;;;;;;4918625;29;20051;-77
2021/07/06 05:14:13;;;;;;;10.43;2.70;;;15.20;66.80;;;;;;4910665;29;20051;-80
2021/07/06 05:16:39;;;;;;;7.82;2.42;;;15.20;66.90;;;;;;4926025;29;20494;-79
2021/07/06 05:19:05;;;;;;;5.80;2.47;;;15.20;66.90;;;;;;4913487;29;20059;-78
2021/07/06 05:21:31;;;;;;;5.97;2.55;;;15.30;67.00;;;;;;4909679;29;20066;-80
2021/07/06 05:23:57;;;;;;;5.65;2.50;;;15.30;67.00;;;;;;4913164;29;20499;-77
2021/07/06 05:26:24;;;;;;;7.43;2.55;;;15.30;67.00;;;;;;4910082;29;20035;-77
2021/07/06 05:28:50;;;;;;;5.25;2.55;;;15.30;67.00;;;;;;4922093;29;20406;-77
2021/07/06 05:31:16;;;;;;;6.45;2.67;;;15.30;67.00;;;;;;4915266;29;20115;-78
2021/07/06 05:33:42;;;;;;;9.80;2.55;;;15.40;67.10;;;;;;4929263;29;20040;-77
2021/07/06 05:36:08;;;;;;;5.90;2.60;;;15.40;67.10;;;;;;4929415;29;20031;-79
2021/07/06 05:38:34;;;;;;;6.97;2.80;;;15.40;67.00;;;;;;4927530;29;20065;-77
2021/07/06 05:41:02;;;;;;;7.15;2.45;;;15.40;66.90;;;;;;4917315;29;20032;-79
2021/07/06 05:43:28;;;;;;;5.40;2.60;;;15.40;67.00;;;;;;4922032;29;20395;-80
2021/07/06 05:45:54;;;;;;;6.85;2.40;;;15.50;67.20;;;;;;4911878;29;20048;-78
2021/07/06 05:48:20;;;;;;;7.32;2.83;;;15.60;67.30;;;;;;4910114;29;20039;-77
2021/07/06 05:50:47;;;;;;;3.45;1.98;;;15.60;67.20;;;;;;4909995;29;20024;-79
2021/07/06 05:53:13;;;;;;;5.93;2.72;;;15.70;67.30;;;;;;4921821;29;20040;-78
2021/07/06 05:55:40;;;;;;;5.85;2.60;;;15.70;67.30;;;;;;4925852;29;20114;-77
2021/07/06 05:58:07;;;;;;;6.50;2.92;;;15.80;67.40;;;;;;4919824;29;20467;-77
2021/07/06 06:00:34;;;;;;;7.40;2.78;;;15.80;67.40;;;;;;4919625;29;20027;-78
2021/07/06 06:03:01;;;;;;;8.05;2.90;;;15.80;67.40;;;;;;4919974;29;20107;-77
2021/07/06 06:05:27;;;;;;;9.15;2.70;;;16.00;67.70;;;;;;4922881;29;20075;-78
2021/07/06 06:07:53;;;;;;;6.18;3.33;;;16.10;67.80;;;;;;4915156;29;20059;-77
2021/07/06 06:10:19;;;;;;;4.82;2.55;;;16.20;68.00;;;;;;4926156;29;20459;-77
2021/07/06 06:12:45;;;;;;;7.78;3.35;;;16.40;68.20;;;;;;4917604;29;20047;-79
2021/07/06 06:15:11;;;;;;;8.45;3.05;;;16.50;68.20;;;;;;4919990;29;20040;-79
2021/07/06 06:17:39;;;;;;;12.18;3.03;;;16.60;68.70;;;;;;4929163;29;20414;-77
2021/07/06 06:20:07;;;;;;;7.63;3.13;;;16.70;69.20;;;;;;4928321;29;20066;-75
2021/07/06 06:22:33;;;;;;;16.77;3.70;;;16.80;69.80;;;;;;4929358;29;20512;-77
2021/07/06 06:24:59;;;;;;;7.32;3.28;;;16.80;70.00;;;;;;4928272;29;20487;-76
2021/07/06 06:27:25;;;;;;;9.30;3.20;;;17.00;70.40;;;;;;4926632;29;20111;-75
2021/07/06 06:29:51;;;;;;;6.72;3.30;;;17.00;70.40;;;;;;4906297;29;20086;-74
2021/07/06 06:32:17;;;;;;;12.10;3.92;;;17.10;70.70;;;;;;4901726;29;20349;-75
2021/07/06 06:34:44;;;;;;;7.25;2.47;;;17.20;71.00;;;;;;4944982;29;20038;-75
2021/07/06 06:37:10;;;;;;;10.70;3.03;;;17.30;71.20;;;;;;4910682;29;20036;-74
2021/07/06 06:39:37;;;;;;;7.90;3.25;;;17.50;71.40;;;;;;4928742;29;20551;-74
2021/07/06 06:42:03;;;;;;;12.13;3.40;;;17.70;71.50;;;;;;4930066;29;20452;-75
2021/07/06 06:44:29;;;;;;;9.13;2.97;;;17.80;71.50;;;;;;4930040;29;20384;-75
2021/07/06 06:46:55;;;;;;;12.10;3.80;;;18.00;71.60;;;;;;4930192;29;20032;-75
2021/07/06 06:49:21;;;;;;;11.73;3.08;;;18.10;71.60;;;;;;4931931;29;20032;-75
2021/07/06 06:51:47;;;;;;;10.68;3.72;;;18.20;71.60;;;;;;4931430;29;20067;-75
2021/07/06 06:54:13;;;;;;;8.63;2.90;;;18.30;71.50;;;;;;4931383;29;20057;-75
2021/07/06 06:56:40;;;;;;;7.93;2.88;;;18.50;71.60;;;;;;4931862;29;20036;-75
2021/07/06 06:59:08;;;;;;;6.88;3.33;;;18.50;71.40;;;;;;4931564;29;20131;-76
2021/07/06 07:01:35;;;;;;;8.07;3.55;;;18.60;71.50;;;;;;4931559;29;20031;-75
2021/07/06 07:04:01;;;;;;;5.88;2.75;;;18.70;71.50;;;;;;4931498;29;20122;-76
2021/07/06 07:06:27;;;;;;;6.32;2.97;;;18.80;71.50;;;;;;4929532;29;20071;-77
2021/07/06 07:08:53;;;;;;;6.82;2.83;;;18.80;71.40;;;;;;4931589;29;20036;-77
2021/07/06 07:11:19;;;;;;;9.20;2.83;;;18.80;71.20;;;;;;4931262;29;20375;-77
2021/07/06 07:13:48;;;;;;;9.02;2.88;;;18.90;71.30;;;;;;4930407;29;20091;-77
2021/07/06 07:16:14;;;;;;;9.85;3.13;;;19.00;71.30;;;;;;4932190;29;20046;-76
2021/07/06 07:18:40;;;;;;;6.05;2.72;;;19.00;71.10;;;;;;4931815;29;20475;-76
2021/07/06 07:21:06;;;;;;;9.82;3.22;;;19.10;71.20;;;;;;4930849;29;20091;-74
2021/07/06 07:23:33;;;;;;;10.45;2.45;;;19.20;71.20;;;;;;4929758;29;20546;-75
2021/07/06 07:25:59;;;;;;;6.68;3.05;;;19.20;71.00;;;;;;4931224;29;20055;-75
2021/07/06 07:28:25;;;;;;;7.28;2.78;;;19.30;71.00;;;;;;4930736;29;20129;-75
2021/07/06 07:30:51;;;;;;;5.13;2.53;;;19.30;70.80;;;;;;4931286;29;20032;-75
2021/07/06 07:33:17;;;;;;;6.82;2.80;;;19.30;70.70;;;;;;4929861;29;20051;-75
2021/07/06 07:35:43;;;;;;;8.90;2.67;;;19.30;70.60;;;;;;4930324;29;20380;-76
2021/07/06 07:38:09;;;;;;;5.35;2.30;;;19.40;70.60;;;;;;4931414;29;20032;-73
2021/07/06 07:40:35;;;;;;;5.25;2.35;;;19.50;70.60;;;;;;4930393;29;20510;-74
2021/07/06 07:43:06;;;;;;;5.10;2.08;;;19.60;70.60;;;;;;4930617;29;20024;-74
2021/07/06 07:45:34;;;;;;;4.20;2.15;;;19.80;70.80;;;;;;4929841;29;20063;-73
2021/07/06 07:48:00;;;;;;;6.55;2.05;;;20.00;70.90;;;;;;4930466;29;20040;-74
2021/07/06 07:50:26;;;;;;;5.97;2.08;;;20.30;71.10;;;;;;4931188;29;20032;-74
2021/07/06 07:52:52;;;;;;;3.33;1.98;;;20.70;71.40;;;;;;4929421;29;20498;-74
2021/07/06 07:55:18;;;;;;;3.83;2.22;;;21.20;71.40;;;;;;4930669;29;20083;-74
2021/07/06 07:57:44;;;;;;;3.83;1.63;;;21.80;71.30;;;;;;4929761;29;20047;-75
2021/07/06 08:00:12;;;;;;;3.33;1.77;;;22.50;71.40;;;;;;4931163;29;20039;-74
2021/07/06 08:02:42;;;;;;;5.03;1.45;;;23.10;70.80;;;;;;4930222;29;20127;-75
2021/07/06 08:05:09;;;;;;;4.32;2.05;;;23.50;69.90;;;;;;4930117;29;20028;-75
2021/07/06 08:07:34;;;;;;;1.65;1.27;;;23.70;69.20;;;;;;4929157;29;20440;-75
2021/07/06 08:10:01;;;;;;;2.70;1.23;;;23.80;68.80;;;;;;4930262;29;20032;-74
2021/07/06 08:12:27;;;;;;;2.45;1.15;;;23.70;68.30;;;;;;4930091;29;20330;-75
2021/07/06 08:14:53;;;;;;;2.58;1.27;;;23.60;68.00;;;;;;4929130;29;20027;-74
2021/07/06 08:17:19;;;;;;;2.22;1.48;;;23.50;67.80;;;;;;4930358;29;20032;-77
2021/07/06 08:19:46;;;;;;;2.13;0.90;;;23.30;68.00;;;;;;4930367;29;20075;-77
2021/07/06 08:22:12;;;;;;;4.20;1.40;;;23.20;67.40;;;;;;4929315;29;20028;-77
2021/07/06 08:24:39;;;;;;;1.85;1.13;;;23.00;67.20;;;;;;4929451;29;20435;-76
2021/07/06 08:27:05;;;;;;;2.22;1.10;;;22.80;66.90;;;;;;4930383;29;20122;-75
2021/07/06 08:29:34;;;;;;;3.17;1.20;;;22.60;66.80;;;;;;4922271;29;20121;-76
2021/07/06 08:32:00;;;;;;;2.17;1.35;;;22.50;66.70;;;;;;4911737;29;20139;-76
2021/07/06 08:34:26;;;;;;;1.05;1.00;;;22.30;66.40;;;;;;4928977;29;20476;-74
2021/07/06 08:36:52;;;;;;;1.52;1.20;;;22.20;66.30;;;;;;4929892;29;20031;-74
2021/07/06 08:39:18;;;;;;;1.33;1.20;;;22.20;66.40;;;;;;4928750;29;20058;-76
2021/07/06 08:41:44;;;;;;;4.85;1.30;;;22.10;66.20;;;;;;4930321;29;20035;-75
2021/07/06 08:44:11;;;;;;;1.15;1.00;;;22.00;66.10;;;;;;4929961;29;20070;-76
2021/07/06 08:46:38;;;;;;;2.80;1.33;;;22.00;66.10;;;;;;4930127;29;20041;-75
2021/07/06 08:49:05;;;;;;;2.67;1.10;;;22.10;66.30;;;;;;4929361;29;20031;-75
2021/07/06 08:51:32;;;;;;;3.55;1.40;;;22.10;66.20;;;;;;4928506;29;20554;-75
2021/07/06 08:53:59;;;;;;;2.17;1.27;;;22.20;66.20;;;;;;4928778;29;20486;-75
2021/07/06 08:56:25;;;;;;;1.67;1.35;;;22.30;66.30;;;;;;4930424;29;20035;-74
2021/07/06 08:58:52;;;;;;;2.13;1.58;;;22.40;66.30;;;;;;4944043;29;20479;-75
2021/07/06 09:01:26;;;;;;;3.80;1.30;;;22.60;66.20;;;;;;4930298;29;20042;-75
2021/07/06 09:03:57;;;;;;;1.30;1.20;;;22.80;66.00;;;;;;4929033;29;20534;-75
2021/07/06 09:06:25;;;;;;;1.40;1.20;;;23.00;66.00;;;;;;4944119;29;20102;-76
2021/07/06 09:08:52;;;;;;;2.50;1.58;;;23.00;65.90;;;;;;4929945;29;20035;-77
2021/07/06 09:11:20;;;;;;;4.68;1.50;;;23.10;65.90;;;;;;4943518;29;20048;-76
2021/07/06 09:13:47;;;;;;;2.05;1.50;;;23.20;66.00;;;;;;4928220;29;20126;-75
2021/07/06 09:16:25;;;;;;;2.97;1.83;;;23.30;66.00;;;;;;4928458;29;20435;-75
2021/07/06 09:18:51;;;;;;;2.47;1.65;;;23.40;65.90;;;;;;4922115;29;20130;-74
2021/07/06 09:21:18;;;;;;;4.13;1.75;;;23.60;65.90;;;;;;4927991;29;20043;-74
2021/07/06 09:23:54;;;;;;;3.15;1.40;;;23.80;65.70;;;;;;4927108;29;20669;-74
2021/07/06 09:26:30;;;;;;;4.30;1.67;;;24.10;65.70;;;;;;4928086;29;20115;-75
2021/07/06 09:28:58;;;;;;;2.92;1.88;;;24.60;65.60;;;;;;4911296;29;20135;-74
2021/07/06 09:31:32;;;;;;;2.65;1.58;;;24.80;65.10;;;;;;4910565;29;20096;-74
2021/07/06 09:34:06;;;;;;;2.60;1.52;;;25.00;64.80;;;;;;4922201;29;20805;-76
2021/07/06 09:36:35;;;;;;;3.50;1.90;;;24.90;64.60;;;;;;4909085;29;20063;-74
2021/07/06 09:39:03;;;;;;;3.25;1.92;;;24.90;64.60;;;;;;4911691;29;20885;-75
2021/07/06 09:41:30;;;;;;;3.38;2.17;;;24.80;64.40;;;;;;4918609;29;20491;-74
2021/07/06 09:44:16;;;;;;;2.80;1.88;;;24.70;64.50;;;;;;4926079;29;20032;-76
2021/07/06 09:46:48;;;;;;;3.85;2.05;;;24.60;64.30;;;;;;4928947;29;20027;-76
2021/07/06 09:49:16;;;;;;;5.28;1.92;;;24.60;64.40;;;;;;4928755;29;20032;-75
2021/07/06 09:51:42;;;;;;;2.95;2.03;;;24.60;64.40;;;;;;4919865;29;20505;-75
2021/07/06 09:54:08;;;;;;;3.00;1.50;;;24.60;64.40;;;;;;4906069;29;20451;-75
2021/07/06 09:56:43;;;;;;;3.70;1.95;;;24.70;64.50;;;;;;4924868;29;20039;-74
2021/07/06 09:59:15;;;;;;;4.03;1.90;;;24.80;64.30;;;;;;4928459;29;20035;-75
2021/07/06 10:01:53;;;;;;;3.13;1.77;;;24.90;64.10;;;;;;4928807;29;20032;-78
2021/07/06 10:04:25;;;;;;;2.45;1.75;;;24.90;63.90;;;;;;4942413;28;20032;-76
2021/07/06 10:06:52;;;;;;;3.42;1.55;;;24.90;63.80;;;;;;4932889;29;20114;-75
2021/07/06 10:09:19;;;;;;;3.90;1.67;;;24.90;63.80;;;;;;4932632;29;20529;-74
2021/07/06 10:11:45;;;;;;;4.43;2.30;;;25.00;63.90;;;;;;4932173;29;20545;-75
2021/07/06 10:14:12;;;;;;;3.60;1.90;;;25.00;63.60;;;;;;4932976;29;20475;-75
2021/07/06 10:16:39;;;;;;;5.82;1.90;;;25.10;63.60;;;;;;4932245;29;20039;-75
2021/07/06 10:19:07;;;;;;;3.20;1.48;;;25.20;63.40;;;;;;4931394;29;20139;-75
2021/07/06 10:21:34;;;;;;;3.85;2.10;;;25.30;63.20;;;;;;4931173;29;20554;-74
2021/07/06 10:24:04;;;;;;;4.18;1.95;;;25.40;63.20;;;;;;4930823;29;20114;-74
2021/07/06 10:26:32;;;;;;;3.63;1.70;;;25.60;63.10;;;;;;4946899;29;20467;-77
2021/07/06 10:28:58;;;;;;;3.25;1.83;;;25.90;62.70;;;;;;4931840;29;20040;-74
2021/07/06 10:31:25;;;;;;;2.65;1.38;;;26.10;62.30;;;;;;4930807;29;20164;-74
2021/07/06 10:33:52;;;;;;;2.80;1.52;;;26.30;61.90;;;;;;4931906;29;20069;-74
2021/07/06 10:36:35;;;;;;;4.03;1.73;;;26.30;61.50;;;;;;4931932;29;20086;-73
2021/07/06 10:39:03;;;;;;;;;;;26.40;61.30;;;;;;4932465;29;20063;-75
2021/07/06 10:41:35;;;;;;;5.32;1.80;;;26.40;61.80;;;;;;4932399;29;19919;-74
2021/07/06 10:44:03;;;;;;;2.83;1.90;;;26.40;61.30;;;;;;4930890;29;20036;-74
2021/07/06 10:46:38;;;;;;;4.75;2.10;;;26.50;61.20;;;;;;4931058;29;20464;-75
2021/07/06 10:49:06;;;;;;;7.53;2.15;;;26.50;61.00;;;;;;4931455;29;20035;-74
2021/07/06 10:51:35;;;;;;;4.60;1.92;;;26.60;61.00;;;;;;4932093;29;20052;-74
2021/07/06 10:54:20;;;;;;;3.72;1.90;;;26.90;60.60;;;;;;4930777;29;20467;-74
2021/07/06 10:56:49;;;;;;;4.47;1.90;;;27.00;60.20;;;;;;4932159;29;20032;-73
2021/07/06 10:59:21;;;;;;;6.88;2.38;;;27.20;60.00;;;;;;4930842;29;20395;-75
2021/07/06 11:01:51;;;;;;;4.53;2.20;;;27.50;59.50;;;;;;4931728;29;20439;-74
2021/07/06 11:04:36;;;;;;;5.32;2.08;;;27.70;59.20;;;;;;4931349;29;20031;-73
2021/07/06 11:07:10;;;;;;;4.55;2.10;;;28.00;58.80;;;;;;4929219;29;20047;-73
2021/07/06 11:09:36;;;;;;;5.40;2.10;;;28.20;58.50;;;;;;4930091;29;20074;-74
2021/07/06 11:12:22;;;;;;;5.78;2.50;;;28.30;58.10;;;;;;4928741;29;20055;-75
2021/07/06 11:14:52;;;;;;;3.95;2.42;;;28.50;57.60;;;;;;4930708;29;20047;-75
2021/07/06 11:17:43;;;;;;;3.13;2.15;;;28.70;57.30;;;;;;4945496;28;20047;-76
2021/07/06 11:20:12;;;;;;;7.97;2.75;;;28.80;57.00;;;;;;4894031;29;20032;-76
2021/07/06 11:22:54;;;;;;;3.15;2.20;;;28.90;56.90;;;;;;4903546;29;20109;-75
2021/07/06 11:25:32;;;;;;;5.28;2.15;;;29.00;56.50;;;;;;4946636;29;20546;-74
2021/07/06 11:27:59;;;;;;;5.80;2.70;;;29.10;56.50;;;;;;4931421;29;20511;-73
2021/07/06 11:30:50;;;;;;;4.18;2.10;;;29.20;56.30;;;;;;4921184;29;20040;-74
2021/07/06 11:33:25;;;;;;;6.15;2.40;;;29.30;56.10;;;;;;4904497;29;20102;-74
2021/07/06 11:35:53;;;;;;;3.75;1.90;;;29.40;55.80;;;;;;4925748;29;20115;-73
2021/07/06 11:38:24;;;;;;;4.95;2.22;;;29.40;55.70;;;;;;4919505;29;20122;-74
2021/07/06 11:40:58;;;;;;;4.20;2.28;;;29.40;55.40;;;;;;4929683;29;20032;-73
2021/07/06 11:43:26;;;;;;;4.85;2.08;;;29.50;55.30;;;;;;4929770;29;20031;-75
2021/07/06 11:45:58;;;;;;;4.68;1.90;;;29.50;55.20;;;;;;4931042;29;20068;-76
2021/07/06 11:48:35;;;;;;;5.50;2.15;;;29.60;54.90;;;;;;4929970;29;20395;-76
2021/07/06 11:51:10;;;;;;;4.55;2.22;;;29.50;54.80;;;;;;4929671;29;20078;-75
2021/07/06 11:53:42;;;;;;;5.68;2.20;;;29.40;54.90;;;;;;4931173;29;20035;-76
2021/07/06 11:56:10;;;;;;;6.32;2.35;;;29.20;55.00;;;;;;4931703;29;20444;-76
2021/07/06 11:58:37;;;;;;;6.78;2.58;;;29.10;55.20;;;;;;4931172;29;20043;-76
2021/07/06 12:01:12;;;;;;;3.85;2.00;;;29.10;55.40;;;;;;4929936;29;20092;-76
2021/07/06 12:03:39;;;;;;;4.55;2.28;;;29.20;55.40;;;;;;4930775;29;20075;-74
2021/07/06 12:06:17;;;;;;;5.25;1.70;;;29.30;55.20;;;;;;4930560;29;20035;-74
2021/07/06 12:08:47;;;;;;;4.82;2.22;;;29.40;54.90;;;;;;4929377;29;20028;-75
2021/07/06 12:11:24;;;;;;;3.30;1.83;;;29.30;54.90;;;;;;4930741;29;20066;-75
2021/07/06 12:13:56;;;;;;;5.80;2.30;;;29.30;54.90;;;;;;4929177;29;20043;-78
2021/07/06 12:16:27;;;;;;;10.88;2.33;;;29.30;55.00;;;;;;4930462;29;20032;-76
2021/07/06 12:19:06;;;;;;;4.88;2.20;;;29.20;55.10;;;;;;4929828;29;20443;-76
2021/07/06 12:21:37;;;;;;;5.78;2.10;;;29.20;55.00;;;;;;4930462;29;20074;-75
2021/07/06 12:24:13;;;;;;;3.65;1.90;;;29.30;55.10;;;;;;4929560;29;20032;-75
2021/07/06 12:26:42;;;;;;;4.95;2.40;;;29.50;54.90;;;;;;4926584;29;20060;-75
2021/07/06 12:29:09;;;;;;;4.05;2.13;;;29.60;54.70;;;;;;4923708;29;20035;-74
2021/07/06 12:31:36;;;;;;;6.32;2.35;;;29.80;54.60;;;;;;4925467;29;20072;-74
2021/07/06 12:34:12;;;;;;;6.60;2.42;;;30.00;54.30;;;;;;4909234;29;20036;-74
2021/07/06 12:36:44;;;;;;;4.13;1.95;;;30.00;54.00;;;;;;4906477;29;20459;-75
2021/07/06 12:39:28;;;;;;;5.25;2.40;;;30.10;54.00;;;;;;4914380;29;20035;-75
2021/07/06 12:41:55;;;;;;;5.40;2.10;;;30.20;53.90;;;;;;4909877;29;20047;-75
2021/07/06 12:44:35;;;;;;;5.13;1.83;;;30.20;53.80;;;;;;4928659;29;20042;-76
2021/07/06 12:47:22;;;;;;;5.47;1.95;;;30.20;53.70;;;;;;4930235;29;20047;-73
2021/07/06 12:50:03;;;;;;;5.47;2.28;;;30.20;54.10;;;;;;4928545;29;20067;-73